createdAt,value
2023-04-18T00:00:50.771Z,7.63
2023-04-18T00:03:20.700Z,7.47
2023-04-18T00:05:49.781Z,8.10
2023-04-18T00:08:17.709Z,7.47
2023-04-18T00:10:45.711Z,7.83
2023-04-18T00:13:18.271Z,7.43
2023-04-18T00:15:46.238Z,7.53
2023-04-18T00:18:16.948Z,8.03
2023-04-18T00:20:46.203Z,7.30
2023-04-18T00:23:15.026Z,8.10
2023-04-18T00:25:42.791Z,8.30
2023-04-18T00:28:10.935Z,8.47
2023-04-18T00:30:40.126Z,8.00
2023-04-18T00:33:08.955Z,8.10
2023-04-18T00:35:38.374Z,8.37
2023-04-18T00:38:06.200Z,8.10
2023-04-18T00:40:34.219Z,7.73
2023-04-18T00:43:02.308Z,8.93
2023-04-18T00:45:30.162Z,7.97
2023-04-18T00:47:59.267Z,8.43
2023-04-18T00:50:27.447Z,8.17
2023-04-18T00:52:55.650Z,8.43
2023-04-18T00:55:23.881Z,8.13
2023-04-18T00:57:51.938Z,7.97
2023-04-18T01:00:19.906Z,8.50
2023-04-18T01:02:49.937Z,9.57
2023-04-18T01:05:21.102Z,8.33
2023-04-18T01:07:48.833Z,8.83
2023-04-18T01:10:17.088Z,8.20
2023-04-18T01:12:44.939Z,7.50
2023-04-18T01:15:12.963Z,8.87
2023-04-18T01:17:41.759Z,7.87
2023-04-18T01:20:10.718Z,8.60
2023-04-18T01:22:40.137Z,8.50
2023-04-18T01:25:11.854Z,8.57
2023-04-18T01:27:39.735Z,7.63
2023-04-18T01:30:09.435Z,8.00
2023-04-18T01:32:37.246Z,8.07
2023-04-18T01:35:06.313Z,7.60
2023-04-18T01:37:35.895Z,7.80
2023-04-18T01:40:04.046Z,8.23
2023-04-18T01:42:33.292Z,7.73
2023-04-18T01:45:01.040Z,8.03
2023-04-18T01:47:28.780Z,8.47
2023-04-18T01:49:56.804Z,8.13
2023-04-18T01:52:24.687Z,8.23
2023-04-18T01:54:52.548Z,8.03
2023-04-18T01:57:20.349Z,7.90
2023-04-18T01:59:51.703Z,7.83
2023-04-18T02:02:19.712Z,7.30
2023-04-18T02:04:47.831Z,6.50
2023-04-18T02:07:15.882Z,7.40
2023-04-18T02:09:43.690Z,7.03
2023-04-18T02:12:12.635Z,7.03
2023-04-18T02:14:40.846Z,7.50
2023-04-18T02:17:10.181Z,6.60
2023-04-18T02:19:38.068Z,6.87
2023-04-18T02:22:06.079Z,7.23
2023-04-18T02:24:34.084Z,7.40
2023-04-18T02:27:02.213Z,6.33
2023-04-18T02:29:30.566Z,6.50
2023-04-18T02:31:58.559Z,6.80
2023-04-18T02:34:27.767Z,6.47
2023-04-18T02:36:55.620Z,6.33
2023-04-18T02:39:23.934Z,6.60
2023-04-18T02:41:51.843Z,6.63
2023-04-18T02:44:20.852Z,6.47
2023-04-18T02:46:48.789Z,6.47
2023-04-18T02:49:17.014Z,6.47
2023-04-18T02:51:47.857Z,6.60
2023-04-18T02:54:16.915Z,6.63
2023-04-18T02:56:56.882Z,6.67
2023-04-18T02:59:40.505Z,6.20
2023-04-18T03:02:28.526Z,6.60
2023-04-18T03:05:01.554Z,5.90
2023-04-18T03:07:31.376Z,7.20
2023-04-18T03:10:00.960Z,5.97
2023-04-18T03:12:34.454Z,5.90
2023-04-18T03:15:04.196Z,6.17
2023-04-18T03:17:32.714Z,6.40
2023-04-18T03:20:00.743Z,6.20
2023-04-18T03:22:28.517Z,5.90
2023-04-18T03:25:00.204Z,6.10
2023-04-18T03:27:42.824Z,5.90
2023-04-18T03:30:13.308Z,6.43
2023-04-18T03:32:43.287Z,6.50
2023-04-18T03:35:11.134Z,6.10
2023-04-18T03:37:39.353Z,6.97
2023-04-18T03:40:11.953Z,6.43
2023-04-18T03:42:41.641Z,6.50
2023-04-18T03:45:12.483Z,6.67
2023-04-18T03:47:41.415Z,6.57
2023-04-18T03:50:10.001Z,6.40
2023-04-18T03:52:39.183Z,5.87
2023-04-18T03:55:07.916Z,6.17
2023-04-18T03:57:37.127Z,6.20
2023-04-18T04:00:12.291Z,6.07
2023-04-18T04:02:46.140Z,7.03
2023-04-18T04:05:21.152Z,6.50
2023-04-18T04:07:50.805Z,6.47
2023-04-18T04:10:19.365Z,6.33
2023-04-18T04:12:50.211Z,6.57
2023-04-18T04:15:19.186Z,6.67
2023-04-18T04:17:52.946Z,6.17
2023-04-18T04:20:24.666Z,6.30
2023-04-18T04:22:59.985Z,7.03
2023-04-18T04:25:29.754Z,7.13
2023-04-18T04:28:03.103Z,7.03
2023-04-18T04:30:34.963Z,7.20
2023-04-18T04:33:03.342Z,7.10
2023-04-18T04:35:32.062Z,7.17
2023-04-18T04:38:01.575Z,6.97
2023-04-18T04:40:36.068Z,7.80
2023-04-18T04:43:15.306Z,7.67
2023-04-18T04:45:45.293Z,6.93
2023-04-18T04:48:13.424Z,7.93
2023-04-18T04:50:43.352Z,7.80
2023-04-18T04:53:12.752Z,7.80
2023-04-18T04:55:41.372Z,8.20
2023-04-18T04:58:09.235Z,8.50
2023-04-18T05:01:04.673Z,8.47
2023-04-18T05:03:33.072Z,9.13
2023-04-18T05:06:01.613Z,8.73
2023-04-18T05:08:29.430Z,8.23
2023-04-18T05:10:57.214Z,8.83
2023-04-18T05:13:25.246Z,9.23
2023-04-18T05:15:53.057Z,9.57
2023-04-18T05:18:22.898Z,9.20
2023-04-18T05:20:50.702Z,8.50
2023-04-18T05:23:18.508Z,9.47
2023-04-18T05:25:46.379Z,8.83
2023-04-18T05:28:16.052Z,9.60
2023-04-18T05:30:44.115Z,10.23
2023-04-18T05:33:11.973Z,9.80
2023-04-18T05:35:41.480Z,10.07
2023-04-18T05:38:09.319Z,9.63
2023-04-18T05:40:37.174Z,9.83
2023-04-18T05:43:05.404Z,9.53
2023-04-18T05:45:33.628Z,9.43
2023-04-18T05:48:01.985Z,10.40
2023-04-18T05:50:29.765Z,9.77
2023-04-18T05:52:59.448Z,9.53
2023-04-18T05:55:27.397Z,8.80
2023-04-18T05:57:55.390Z,9.57
2023-04-18T06:00:23.674Z,9.67
2023-04-18T06:02:51.863Z,10.13
2023-04-18T06:05:20.319Z,9.50
2023-04-18T06:07:49.313Z,9.83
2023-04-18T06:10:18.742Z,9.30
2023-04-18T06:12:46.541Z,10.10
2023-04-18T06:15:14.554Z,9.77
2023-04-18T06:17:42.512Z,10.13
2023-04-18T06:20:11.968Z,10.03
2023-04-18T06:22:39.962Z,10.33
2023-04-18T06:25:10.023Z,9.60
2023-04-18T06:27:39.893Z,10.03
2023-04-18T06:30:08.755Z,10.43
2023-04-18T06:32:36.912Z,10.23
2023-04-18T06:35:05.096Z,10.77
2023-04-18T06:37:33.056Z,9.90
2023-04-18T06:40:01.107Z,10.77
2023-04-18T06:42:29.179Z,9.90
2023-04-18T06:44:58.558Z,9.90
2023-04-18T06:47:26.907Z,9.70
2023-04-18T06:49:54.907Z,10.00
2023-04-18T06:52:22.775Z,9.37
2023-04-18T06:54:50.654Z,9.30
2023-04-18T06:57:18.525Z,9.57
2023-04-18T06:59:46.423Z,10.30
2023-04-18T07:02:15.951Z,9.90
2023-04-18T07:04:44.093Z,9.90
2023-04-18T07:07:12.246Z,8.87
2023-04-18T07:09:40.422Z,9.80
2023-04-18T07:12:08.470Z,9.40
2023-04-18T07:14:36.216Z,9.43
2023-04-18T07:17:05.087Z,9.63
2023-04-18T07:19:34.569Z,10.20
2023-04-18T07:22:02.353Z,9.60
2023-04-18T07:24:30.611Z,10.17
2023-04-18T07:26:58.317Z,10.70
2023-04-18T07:29:26.050Z,10.37
2023-04-18T07:31:53.982Z,11.20
2023-04-18T07:34:23.094Z,10.70
2023-04-18T07:36:52.568Z,11.83
2023-04-18T07:39:20.458Z,11.50
2023-04-18T07:41:48.270Z,10.10
2023-04-18T07:44:16.461Z,10.80
2023-04-18T07:46:44.315Z,11.37
2023-04-18T07:49:12.478Z,10.70
2023-04-18T07:51:40.487Z,10.77
2023-04-18T07:54:11.065Z,10.80
2023-04-18T07:56:38.809Z,9.93
2023-04-18T07:59:06.763Z,10.37
2023-04-18T08:01:35.120Z,9.50
2023-04-18T08:04:03.555Z,11.17
2023-04-18T08:06:31.483Z,10.30
2023-04-18T08:09:04.177Z,10.00
2023-04-18T08:11:37.165Z,10.30
2023-04-18T08:14:05.425Z,10.93
2023-04-18T08:16:34.371Z,11.10
2023-04-18T08:19:03.192Z,11.20
2023-04-18T08:21:51.603Z,11.07
2023-04-18T08:24:23.763Z,11.80
2023-04-18T08:26:53.068Z,12.23
2023-04-18T08:29:20.885Z,11.70
2023-04-18T08:31:48.851Z,12.07
2023-04-18T08:34:16.760Z,12.23
2023-04-18T08:36:44.785Z,11.97
2023-04-18T08:39:12.918Z,12.80
2023-04-18T08:41:52.357Z,13.20
2023-04-18T08:44:22.975Z,13.13
2023-04-18T08:47:01.884Z,12.53
2023-04-18T08:49:31.696Z,12.43
2023-04-18T08:52:01.103Z,12.00
2023-04-18T08:54:30.598Z,12.50
2023-04-18T08:57:06.857Z,12.90
2023-04-18T08:59:43.150Z,12.47
2023-04-18T09:02:15.802Z,12.70
2023-04-18T09:04:48.920Z,12.70
2023-04-18T09:07:18.707Z,12.47
2023-04-18T09:09:49.015Z,12.47
2023-04-18T09:12:19.827Z,12.57
2023-04-18T09:14:51.498Z,13.10
2023-04-18T09:17:33.730Z,13.67
2023-04-18T09:20:10.571Z,12.63
2023-04-18T09:22:48.928Z,12.97
2023-04-18T09:25:29.272Z,13.30
2023-04-18T09:28:01.091Z,12.53
2023-04-18T09:30:38.030Z,13.17
2023-04-18T09:33:09.657Z,12.70
2023-04-18T09:35:38.362Z,13.37
2023-04-18T09:38:07.312Z,12.90
2023-04-18T09:40:36.014Z,12.67
2023-04-18T09:43:19.071Z,12.70
2023-04-18T09:45:49.750Z,12.97
2023-04-18T09:48:17.633Z,12.33
2023-04-18T09:50:47.214Z,12.83
2023-04-18T09:53:20.820Z,13.53
2023-04-18T09:55:53.039Z,13.17
2023-04-18T09:58:24.312Z,13.60
2023-04-18T10:00:55.754Z,13.50
2023-04-18T10:03:31.306Z,12.93
2023-04-18T10:06:00.085Z,13.10
2023-04-18T10:08:29.150Z,13.67
2023-04-18T10:10:58.785Z,13.43
2023-04-18T10:13:28.801Z,13.07
2023-04-18T10:16:00.050Z,13.53
2023-04-18T10:18:28.188Z,13.23
2023-04-18T10:21:03.228Z,13.13
2023-04-18T10:23:39.304Z,12.60
2023-04-18T10:26:08.800Z,12.37
2023-04-18T10:28:55.217Z,12.53
2023-04-18T10:31:26.584Z,12.73
2023-04-18T10:36:30.002Z,12.03
2023-04-18T10:39:20.658Z,12.33
2023-04-18T10:41:51.081Z,12.53
2023-04-18T10:44:23.734Z,12.87
2023-04-18T10:47:29.253Z,12.13
2023-04-18T10:50:01.382Z,12.23
2023-04-18T10:52:30.116Z,12.00
2023-04-18T10:55:11.349Z,12.67
2023-04-18T10:57:40.920Z,13.00
2023-04-18T11:00:12.605Z,12.53
2023-04-18T11:02:41.653Z,12.67
2023-04-18T11:05:11.660Z,11.67
2023-04-18T11:07:41.147Z,11.67
2023-04-18T11:10:10.606Z,12.37
2023-04-18T11:12:41.413Z,12.97
2023-04-18T11:15:12.321Z,12.77
2023-04-18T11:17:41.226Z,12.13
2023-04-18T11:20:12.809Z,12.60
2023-04-18T11:22:49.023Z,12.63
2023-04-18T11:25:18.150Z,12.00
2023-04-18T11:27:47.938Z,12.40
2023-04-18T11:30:16.635Z,13.27
2023-04-18T11:32:45.024Z,11.40
2023-04-18T11:35:16.174Z,11.80
2023-04-18T11:37:46.937Z,12.53
2023-04-18T11:40:15.684Z,12.03
2023-04-18T11:42:43.789Z,12.40
2023-04-18T11:45:13.737Z,11.57
2023-04-18T11:47:46.457Z,11.40
2023-04-18T11:50:15.895Z,12.10
2023-04-18T11:52:43.887Z,11.00
2023-04-18T11:55:14.675Z,12.00
2023-04-18T11:57:42.939Z,12.10
2023-04-18T12:00:12.614Z,11.73
2023-04-18T12:02:43.047Z,12.43
2023-04-18T12:05:11.766Z,12.00
2023-04-18T12:07:42.932Z,12.43
2023-04-18T12:10:24.892Z,12.93
2023-04-18T12:12:54.547Z,12.50
2023-04-18T12:15:27.045Z,12.47
2023-04-18T12:17:59.402Z,12.97
2023-04-18T12:20:35.026Z,11.90
2023-04-18T12:23:04.770Z,12.60
2023-04-18T12:25:36.854Z,11.90
2023-04-18T12:28:24.469Z,13.23
2023-04-18T12:30:52.653Z,12.17
2023-04-18T12:33:20.607Z,13.47
2023-04-18T12:35:49.627Z,13.73
2023-04-18T12:38:21.826Z,13.37
2023-04-18T12:40:50.704Z,13.50
2023-04-18T12:43:20.309Z,13.03
2023-04-18T12:45:48.464Z,13.73
2023-04-18T12:48:16.569Z,13.80
2023-04-18T12:50:44.374Z,13.10
2023-04-18T12:53:12.212Z,13.43
2023-04-18T12:55:42.980Z,12.40
2023-04-18T12:58:11.581Z,12.47
2023-04-18T13:00:41.402Z,12.27
2023-04-18T13:03:48.687Z,12.43
2023-04-18T13:06:21.356Z,11.83
2023-04-18T13:08:49.041Z,12.93
2023-04-18T13:11:16.800Z,14.47
2023-04-18T13:13:45.053Z,13.50
2023-04-18T13:16:15.110Z,13.63
2023-04-18T13:18:42.988Z,14.30
2023-04-18T13:21:10.803Z,13.90
2023-04-18T13:23:38.721Z,14.13
2023-04-18T13:26:08.397Z,15.03
2023-04-18T13:28:36.120Z,14.73
2023-04-18T13:31:03.978Z,16.97
2023-04-18T13:33:33.182Z,16.67
2023-04-18T13:36:01.040Z,15.27
2023-04-18T13:38:29.073Z,14.70
2023-04-18T13:41:10.765Z,14.17
2023-04-18T13:43:39.681Z,14.07
2023-04-18T13:46:08.093Z,14.20
2023-04-18T13:48:37.576Z,14.13
2023-04-18T13:51:06.879Z,13.83
2023-04-18T13:53:34.619Z,13.93
2023-04-18T13:56:02.387Z,13.70
2023-04-18T13:58:30.655Z,13.63
2023-04-18T14:00:59.282Z,13.13
2023-04-18T14:03:27.238Z,14.43
2023-04-18T14:05:57.142Z,13.33
2023-04-18T14:08:24.915Z,14.17
2023-04-18T14:10:52.727Z,12.77
2023-04-18T14:13:20.726Z,13.27
2023-04-18T14:15:48.740Z,13.80
2023-04-18T14:18:21.381Z,13.67
2023-04-18T14:20:49.219Z,14.53
2023-04-18T14:23:18.618Z,13.37
2023-04-18T14:25:46.815Z,13.60
2023-04-18T14:28:15.827Z,13.37
2023-04-18T14:30:45.127Z,13.23
2023-04-18T14:33:12.903Z,13.47
2023-04-18T14:35:40.835Z,14.03
2023-04-18T14:38:08.662Z,12.43
2023-04-18T14:40:38.042Z,12.73
2023-04-18T14:43:05.743Z,12.60
2023-04-18T14:45:34.523Z,13.27
2023-04-18T14:48:02.453Z,11.90
2023-04-18T14:50:30.308Z,13.00
2023-04-18T14:52:58.088Z,12.63
2023-04-18T14:55:26.631Z,14.27
2023-04-18T14:57:55.906Z,14.53
2023-04-18T15:00:23.848Z,14.30
2023-04-18T15:02:52.045Z,14.47
2023-04-18T15:05:23.544Z,14.03
2023-04-18T15:07:52.036Z,14.67
2023-04-18T15:10:22.315Z,13.97
2023-04-18T15:12:51.038Z,14.47
2023-04-18T15:15:20.898Z,14.43
2023-04-18T15:17:48.853Z,13.20
2023-04-18T15:20:16.618Z,13.27
2023-04-18T15:22:44.389Z,13.30
2023-04-18T15:25:16.270Z,12.20
2023-04-18T15:27:44.095Z,13.07
2023-04-18T15:30:12.618Z,13.50
2023-04-18T15:32:42.813Z,13.87
2023-04-18T15:35:11.532Z,14.07
2023-04-18T15:37:39.845Z,12.47
2023-04-18T15:40:11.389Z,12.73
2023-04-18T15:42:40.428Z,13.03
2023-04-18T15:45:09.504Z,12.20
2023-04-18T15:47:38.751Z,12.93
2023-04-18T15:50:11.409Z,12.33
2023-04-18T15:52:40.839Z,11.83
2023-04-18T15:55:10.986Z,11.90
2023-04-18T15:57:38.725Z,13.00
2023-04-18T16:00:11.052Z,12.90
2023-04-18T16:02:39.189Z,12.83
2023-04-18T16:05:09.407Z,11.97
2023-04-18T16:07:37.422Z,12.63
2023-04-18T16:10:08.487Z,12.23
2023-04-18T16:12:36.220Z,12.30
2023-04-18T16:15:06.076Z,12.13
2023-04-18T16:17:33.803Z,11.67
2023-04-18T16:20:01.924Z,11.57
2023-04-18T16:22:31.385Z,11.70
2023-04-18T16:24:59.063Z,12.27
2023-04-18T16:27:26.834Z,12.77
2023-04-18T16:29:55.156Z,13.37
2023-04-18T16:32:23.080Z,13.07
2023-04-18T16:34:50.822Z,13.73
2023-04-18T16:37:18.596Z,13.00
2023-04-18T16:39:48.125Z,13.07
2023-04-18T16:42:16.031Z,13.00
2023-04-18T16:44:45.207Z,13.67
2023-04-18T16:47:12.974Z,13.07
2023-04-18T16:49:41.321Z,13.10
2023-04-18T16:52:09.959Z,11.90
2023-04-18T16:54:38.561Z,12.63
2023-04-18T16:57:08.488Z,11.93
2023-04-18T16:59:37.170Z,11.87
2023-04-18T17:02:08.321Z,12.97
2023-04-18T17:04:37.275Z,12.67
2023-04-18T17:07:07.080Z,12.77
2023-04-18T17:09:35.635Z,12.43
2023-04-18T17:12:03.589Z,12.00
2023-04-18T17:14:33.199Z,12.33
2023-04-18T17:17:00.831Z,12.43
2023-04-18T17:19:29.005Z,11.27
2023-04-18T17:21:56.731Z,12.47
2023-04-18T17:24:25.099Z,13.23
2023-04-18T17:26:52.815Z,12.10
2023-04-18T17:29:22.702Z,12.90
2023-04-18T17:31:52.964Z,12.30
2023-04-18T17:34:21.284Z,13.10
2023-04-18T17:36:48.924Z,12.17
2023-04-18T17:39:17.039Z,12.73
2023-04-18T17:41:46.186Z,12.43
2023-04-18T17:44:13.896Z,12.43
2023-04-18T17:46:41.611Z,12.03
2023-04-18T17:49:11.368Z,12.77
2023-04-18T17:51:39.189Z,12.67
2023-04-18T17:54:08.182Z,12.97
2023-04-18T17:56:35.994Z,13.00
2023-04-18T17:59:03.892Z,12.50
2023-04-18T18:01:32.918Z,13.27
2023-04-18T18:04:00.896Z,12.93
2023-04-18T18:06:30.400Z,11.80
2023-04-18T18:08:58.178Z,12.87
2023-04-18T18:11:27.536Z,13.57
2023-04-18T18:13:57.270Z,13.03
2023-04-18T18:16:25.786Z,13.43
2023-04-18T18:18:53.726Z,12.67
2023-04-18T18:21:21.889Z,13.23
2023-04-18T18:23:51.031Z,12.70
2023-04-18T18:26:18.788Z,12.57
2023-04-18T18:28:46.428Z,13.60
2023-04-18T18:31:14.233Z,13.03
2023-04-18T18:33:41.955Z,13.40
2023-04-18T18:36:09.664Z,13.40
2023-04-18T18:38:37.662Z,14.30
2023-04-18T18:41:07.420Z,12.00
2023-04-18T18:43:35.311Z,13.63
2023-04-18T18:46:03.135Z,13.70
2023-04-18T18:48:32.771Z,12.87
2023-04-18T18:51:00.433Z,13.97
2023-04-18T18:53:28.138Z,13.03
2023-04-18T18:55:56.139Z,13.13
2023-04-18T18:58:25.198Z,12.50
2023-04-18T19:00:53.828Z,14.13
2023-04-18T19:03:26.281Z,14.47
2023-04-18T19:05:54.212Z,13.70
2023-04-18T19:08:22.033Z,12.93
2023-04-18T19:10:50.569Z,13.43
2023-04-18T19:13:22.492Z,12.83
2023-04-18T19:15:51.779Z,14.07
2023-04-18T19:18:20.276Z,13.37
2023-04-18T19:20:48.321Z,13.37
2023-04-18T19:23:16.808Z,13.23
2023-04-18T19:25:45.115Z,13.30
2023-04-18T19:28:14.208Z,13.30
2023-04-18T19:30:42.924Z,13.70
2023-04-18T19:33:12.019Z,13.43
2023-04-18T19:35:39.766Z,14.07
2023-04-18T19:38:07.645Z,13.37
2023-04-18T19:40:35.995Z,14.00
2023-04-18T19:43:03.742Z,13.50
2023-04-18T19:45:31.799Z,14.33
2023-04-18T19:47:59.640Z,13.10
2023-04-18T19:50:29.167Z,12.47
2023-04-18T19:52:57.176Z,12.83
2023-04-18T19:55:25.466Z,13.60
2023-04-18T19:57:55.904Z,13.50
2023-04-18T20:00:23.848Z,12.93
2023-04-18T20:02:52.035Z,13.50
2023-04-18T20:05:20.789Z,13.27
2023-04-18T20:07:50.169Z,14.20
2023-04-18T20:10:21.013Z,14.00
2023-04-18T20:12:50.064Z,12.23
2023-04-18T20:15:18.362Z,13.10
2023-04-18T20:17:46.227Z,13.27
2023-04-18T20:20:14.081Z,13.20
2023-04-18T20:22:44.625Z,12.80
2023-04-18T20:25:13.877Z,12.70
2023-04-18T20:27:41.646Z,12.97
2023-04-18T20:30:10.055Z,13.43
2023-04-18T20:32:37.855Z,13.20
2023-04-18T20:35:06.438Z,12.73
2023-04-18T20:37:37.020Z,12.80
2023-04-18T20:40:07.990Z,13.00
2023-04-18T20:42:39.055Z,12.80
2023-04-18T20:45:10.831Z,13.20
2023-04-18T20:47:38.753Z,12.70
2023-04-18T20:50:08.230Z,12.63
2023-04-18T20:52:36.396Z,12.90
2023-04-18T20:55:04.373Z,13.43
2023-04-18T20:57:32.389Z,13.20
2023-04-18T21:00:01.777Z,12.87
2023-04-18T21:02:29.828Z,12.57
2023-04-18T21:04:59.727Z,13.20
2023-04-18T21:07:27.584Z,13.60
2023-04-18T21:09:55.387Z,12.17
2023-04-18T21:12:23.412Z,13.10
2023-04-18T21:14:51.523Z,13.17
2023-04-18T21:17:20.904Z,12.77
2023-04-18T21:19:49.023Z,12.80
2023-04-18T21:22:17.506Z,13.33
2023-04-18T21:24:46.977Z,13.20
2023-04-18T21:27:16.156Z,13.13
2023-04-18T21:29:43.925Z,13.77
2023-04-18T21:32:12.064Z,13.40
2023-04-18T21:34:41.370Z,13.20
2023-04-18T21:37:09.101Z,13.60
2023-04-18T21:39:38.091Z,12.53
2023-04-18T21:42:05.883Z,13.27
2023-04-18T21:44:33.938Z,13.40
2023-04-18T21:47:01.767Z,13.60
2023-04-18T21:49:29.695Z,13.00
2023-04-18T21:51:58.980Z,12.50
2023-04-18T21:54:26.905Z,12.90
2023-04-18T21:56:55.193Z,12.97
2023-04-18T21:59:23.167Z,12.70
2023-04-18T22:01:51.373Z,11.83
2023-04-18T22:04:21.190Z,12.50
2023-04-18T22:06:49.265Z,13.17
2023-04-18T22:09:19.926Z,12.97
2023-04-18T22:11:48.342Z,12.77
2023-04-18T22:14:16.483Z,12.70
2023-04-18T22:16:45.030Z,12.07
2023-04-18T22:19:14.200Z,12.30
2023-04-18T22:21:42.186Z,12.83
2023-04-18T22:24:10.490Z,12.50
2023-04-18T22:26:40.842Z,12.07
2023-04-18T22:29:09.195Z,13.00
2023-04-18T22:31:37.006Z,11.80
2023-04-18T22:34:05.626Z,12.07
2023-04-18T22:36:33.482Z,12.40
2023-04-18T22:39:01.277Z,11.73
2023-04-18T22:41:29.387Z,12.13
2023-04-18T22:43:59.132Z,12.00
2023-04-18T22:46:27.437Z,12.40
2023-04-18T22:48:55.243Z,12.10
2023-04-18T22:51:23.461Z,12.17
2023-04-18T22:53:51.264Z,12.77
2023-04-18T22:56:18.931Z,13.47
2023-04-18T22:58:46.700Z,13.13
2023-04-18T23:01:16.060Z,13.63
2023-04-18T23:03:43.973Z,12.50
2023-04-18T23:06:12.089Z,12.63
2023-04-18T23:08:39.933Z,13.00
2023-04-18T23:11:10.690Z,12.23
2023-04-18T23:13:38.624Z,12.50
2023-04-18T23:16:07.349Z,13.27
2023-04-18T23:18:37.134Z,11.70
2023-04-18T23:21:05.373Z,12.37
2023-04-18T23:23:33.767Z,13.10
2023-04-18T23:26:02.427Z,13.37
2023-04-18T23:28:30.553Z,13.17
2023-04-18T23:30:58.731Z,12.57
2023-04-18T23:33:26.673Z,12.87
2023-04-18T23:35:56.144Z,13.30
2023-04-18T23:38:24.243Z,12.77
2023-04-18T23:40:52.038Z,13.80
2023-04-18T23:43:20.464Z,12.97
2023-04-18T23:45:48.256Z,13.53
2023-04-18T23:48:15.986Z,13.17
2023-04-18T23:50:46.908Z,13.97
2023-04-18T23:53:17.270Z,13.07
2023-04-18T23:55:45.300Z,13.60
2023-04-18T23:58:13.927Z,14.20
